createdAt,value
2023-12-02T00:00:53.245Z,1.95
2023-12-02T00:03:20.664Z,1.67
2023-12-02T00:05:48.092Z,1.50
2023-12-02T00:08:15.452Z,1.77
2023-12-02T00:10:44.435Z,1.42
2023-12-02T00:13:11.756Z,1.50
2023-12-02T00:15:39.128Z,1.92
2023-12-02T00:18:06.789Z,2.67
2023-12-02T00:20:34.458Z,1.70
2023-12-02T00:23:01.795Z,2.03
2023-12-02T00:25:29.157Z,2.38
2023-12-02T00:27:58.045Z,5.10
2023-12-02T00:30:25.449Z,2.58
2023-12-02T00:32:52.990Z,1.95
2023-12-02T00:35:20.631Z,1.63
2023-12-02T00:37:47.980Z,1.85
2023-12-02T00:40:15.557Z,1.65
2023-12-02T00:42:42.951Z,1.92
2023-12-02T00:45:12.106Z,2.10
2023-12-02T00:47:39.557Z,1.77
2023-12-02T00:50:07.604Z,1.42
2023-12-02T00:52:34.942Z,1.70
2023-12-02T00:55:02.387Z,1.42
2023-12-02T00:57:29.749Z,1.60
2023-12-02T00:59:57.263Z,1.50
2023-12-02T01:02:26.229Z,1.45
2023-12-02T01:04:53.596Z,1.70
2023-12-02T01:07:21.011Z,1.40
2023-12-02T01:09:48.515Z,1.52
2023-12-02T01:12:15.899Z,2.08
2023-12-02T01:14:43.297Z,1.60
2023-12-02T01:17:10.699Z,1.60
2023-12-02T01:19:39.634Z,1.65
2023-12-02T01:22:06.995Z,1.80
2023-12-02T01:24:34.582Z,2.15
2023-12-02T01:27:01.973Z,1.88
2023-12-02T01:29:29.339Z,1.75
2023-12-02T01:31:56.746Z,1.52
2023-12-02T01:34:24.109Z,1.63
2023-12-02T01:36:53.012Z,2.03
2023-12-02T01:39:20.403Z,1.98
2023-12-02T01:41:47.817Z,1.58
2023-12-02T01:44:15.149Z,1.63
2023-12-02T01:46:42.566Z,1.70
2023-12-02T01:49:10.224Z,1.55
2023-12-02T01:51:38.076Z,1.90
2023-12-02T01:54:07.082Z,2.17
2023-12-02T01:56:34.441Z,1.77
2023-12-02T01:59:02.336Z,1.70
2023-12-02T02:01:30.773Z,1.77
2023-12-02T02:03:58.176Z,1.65
2023-12-02T02:06:25.564Z,1.75
2023-12-02T02:08:52.977Z,1.75
2023-12-02T02:11:21.877Z,3.15
2023-12-02T02:13:49.247Z,2.08
2023-12-02T02:16:16.617Z,1.98
2023-12-02T02:18:44.034Z,1.90
2023-12-02T02:21:11.494Z,2.17
2023-12-02T02:23:40.507Z,2.00
2023-12-02T02:26:07.983Z,1.90
2023-12-02T02:28:35.313Z,2.10
2023-12-02T02:31:02.706Z,1.85
2023-12-02T02:33:30.094Z,1.90
2023-12-02T02:35:57.478Z,1.92
2023-12-02T02:38:25.040Z,1.50
2023-12-02T02:40:53.937Z,2.30
2023-12-02T02:43:21.293Z,1.73
2023-12-02T02:45:48.639Z,1.88
2023-12-02T02:48:16.181Z,1.80
2023-12-02T02:50:43.594Z,2.17
2023-12-02T02:53:10.983Z,1.90
2023-12-02T02:55:38.311Z,2.25
2023-12-02T02:58:07.198Z,2.22
2023-12-02T03:00:34.604Z,1.83
2023-12-02T03:03:01.985Z,1.83
2023-12-02T03:05:29.325Z,1.73
2023-12-02T03:07:56.688Z,2.13
2023-12-02T03:10:24.274Z,2.10
2023-12-02T03:12:51.612Z,1.92
2023-12-02T03:15:20.573Z,1.98
2023-12-02T03:17:47.978Z,2.35
2023-12-02T03:20:15.422Z,2.10
2023-12-02T03:22:42.801Z,2.00
2023-12-02T03:25:10.107Z,1.98
2023-12-02T03:27:37.476Z,2.47
2023-12-02T03:30:05.487Z,1.90
2023-12-02T03:32:34.417Z,2.38
2023-12-02T03:35:01.785Z,2.20
2023-12-02T03:37:29.153Z,1.83
2023-12-02T03:39:56.509Z,1.95
2023-12-02T03:42:23.913Z,2.58
2023-12-02T03:44:51.534Z,1.95
2023-12-02T03:47:18.869Z,1.88
2023-12-02T03:49:48.039Z,2.88
2023-12-02T03:52:15.441Z,2.03
2023-12-02T03:54:42.787Z,2.15
2023-12-02T03:57:10.216Z,1.98
2023-12-02T03:59:38.654Z,1.85
2023-12-02T04:02:06.236Z,2.45
2023-12-02T04:04:33.709Z,2.20
2023-12-02T04:07:02.865Z,1.77
2023-12-02T04:09:30.288Z,2.33
2023-12-02T04:11:57.685Z,2.00
2023-12-02T04:14:25.093Z,2.28
2023-12-02T04:16:52.450Z,2.40
2023-12-02T04:19:19.965Z,2.22
2023-12-02T04:21:47.447Z,1.95
2023-12-02T04:24:16.809Z,2.20
2023-12-02T04:26:44.183Z,1.98
2023-12-02T04:29:11.564Z,2.22
2023-12-02T04:31:38.903Z,2.90
2023-12-02T04:34:06.330Z,2.55
2023-12-02T04:36:33.843Z,2.15
2023-12-02T04:39:01.688Z,1.88
2023-12-02T04:41:30.622Z,2.30
2023-12-02T04:43:58.010Z,2.40
2023-12-02T04:46:25.371Z,2.35
2023-12-02T04:48:52.842Z,1.88
2023-12-02T04:51:20.367Z,1.80
2023-12-02T04:53:47.728Z,2.50
2023-12-02T04:56:15.070Z,2.33
2023-12-02T04:58:44.013Z,2.10
2023-12-02T05:01:11.392Z,2.45
2023-12-02T05:03:38.824Z,2.45
2023-12-02T05:06:07.067Z,2.15
2023-12-02T05:08:34.422Z,2.00
2023-12-02T05:11:01.773Z,2.35
2023-12-02T05:13:29.137Z,1.70
2023-12-02T05:15:58.028Z,2.13
2023-12-02T05:18:25.650Z,2.50
2023-12-02T05:20:53.120Z,2.45
2023-12-02T05:23:20.452Z,2.35
2023-12-02T05:25:47.773Z,1.95
2023-12-02T05:28:15.357Z,2.10
2023-12-02T05:30:42.744Z,2.20
2023-12-02T05:33:11.706Z,2.20
2023-12-02T05:35:39.166Z,2.80
2023-12-02T05:38:06.640Z,2.30
2023-12-02T05:40:33.985Z,2.70
2023-12-02T05:43:01.365Z,2.60
2023-12-02T05:45:28.711Z,1.88
2023-12-02T05:47:56.208Z,2.10
2023-12-02T05:50:25.361Z,2.90
2023-12-02T05:52:52.689Z,3.15
2023-12-02T05:55:20.015Z,2.67
2023-12-02T05:57:47.462Z,2.17
2023-12-02T06:00:15.355Z,2.53
2023-12-02T06:02:42.742Z,2.33
2023-12-02T06:05:10.557Z,2.28
2023-12-02T06:07:39.822Z,2.55
2023-12-02T06:10:07.980Z,2.22
2023-12-02T06:12:35.475Z,2.40
2023-12-02T06:15:02.896Z,2.42
2023-12-02T06:17:30.316Z,2.42
2023-12-02T06:19:57.752Z,2.28
2023-12-02T06:22:25.114Z,2.25
2023-12-02T06:24:54.372Z,2.95
2023-12-02T06:27:21.797Z,2.45
2023-12-02T06:29:49.124Z,2.20
2023-12-02T06:32:16.460Z,2.40
2023-12-02T06:34:43.844Z,2.53
2023-12-02T06:37:11.187Z,2.38
2023-12-02T06:39:38.623Z,2.55
2023-12-02T06:42:08.058Z,2.25
2023-12-02T06:44:35.401Z,2.20
2023-12-02T06:47:02.755Z,2.22
2023-12-02T06:49:30.248Z,2.35
2023-12-02T06:51:57.601Z,2.92
2023-12-02T06:54:25.570Z,2.58
2023-12-02T06:56:53.053Z,2.03
2023-12-02T06:59:22.034Z,2.70
2023-12-02T07:01:49.642Z,2.50
2023-12-02T07:04:17.382Z,2.47
2023-12-02T07:06:44.862Z,2.63
2023-12-02T07:09:12.787Z,2.55
2023-12-02T07:11:40.274Z,2.80
2023-12-02T07:14:07.605Z,2.40
2023-12-02T07:16:36.501Z,2.92
2023-12-02T07:19:04.014Z,3.53
2023-12-02T07:21:31.426Z,2.40
2023-12-02T07:23:58.950Z,3.53
2023-12-02T07:26:26.350Z,2.55
2023-12-02T07:28:53.708Z,2.60
2023-12-02T07:31:21.047Z,2.92
2023-12-02T07:33:50.033Z,3.22
2023-12-02T07:36:17.372Z,2.78
2023-12-02T07:38:44.731Z,2.90
2023-12-02T07:41:12.162Z,2.75
2023-12-02T07:43:39.623Z,3.08
2023-12-02T07:46:07.552Z,2.90
2023-12-02T07:48:35.114Z,2.40
2023-12-02T07:51:05.496Z,3.42
2023-12-02T07:53:33.018Z,3.40
2023-12-02T07:56:00.516Z,3.35
2023-12-02T07:58:28.066Z,3.22
2023-12-02T08:00:55.462Z,3.05
2023-12-02T08:03:24.947Z,2.85
2023-12-02T08:05:53.022Z,2.72
2023-12-02T08:08:21.945Z,2.60
2023-12-02T08:10:49.543Z,2.40
2023-12-02T08:13:16.990Z,2.25
2023-12-02T08:15:44.338Z,2.58
2023-12-02T08:18:11.941Z,3.17
2023-12-02T08:20:39.353Z,2.45
2023-12-02T08:23:06.734Z,2.85
2023-12-02T08:25:35.785Z,2.38
2023-12-02T08:28:03.164Z,2.72
2023-12-02T08:30:30.488Z,2.83
2023-12-02T08:32:57.946Z,2.80
2023-12-02T08:35:25.349Z,2.33
2023-12-02T08:37:52.725Z,2.63
2023-12-02T08:40:20.237Z,2.10
2023-12-02T08:42:49.129Z,2.63
2023-12-02T08:45:16.545Z,2.75
2023-12-02T08:47:43.920Z,3.55
2023-12-02T08:50:11.421Z,3.25
2023-12-02T08:52:38.803Z,3.30
2023-12-02T08:55:06.964Z,3.10
2023-12-02T08:57:34.301Z,2.63
2023-12-02T09:00:03.252Z,2.30
2023-12-02T09:02:31.076Z,2.60
2023-12-02T09:04:58.541Z,2.17
2023-12-02T09:07:25.973Z,2.45
2023-12-02T09:09:53.470Z,2.67
2023-12-02T09:12:20.793Z,2.67
2023-12-02T09:14:48.110Z,2.53
2023-12-02T09:17:52.517Z,2.90
2023-12-02T09:20:32.567Z,2.85
2023-12-02T09:23:01.283Z,2.92
2023-12-02T09:25:28.986Z,3.00
2023-12-02T09:28:16.897Z,2.83
2023-12-02T09:31:06.715Z,2.63
2023-12-02T09:33:39.443Z,3.55
2023-12-02T09:36:08.019Z,2.80
2023-12-02T09:38:35.444Z,2.38
2023-12-02T09:41:07.627Z,2.13
2023-12-02T09:43:37.082Z,2.95
2023-12-02T09:46:22.940Z,3.92
2023-12-02T09:49:07.006Z,2.88
2023-12-02T09:51:42.601Z,2.17
2023-12-02T09:54:13.119Z,2.92
2023-12-02T09:56:42.708Z,2.58
2023-12-02T09:59:15.501Z,2.35
2023-12-02T10:01:43.558Z,2.80
2023-12-02T10:04:17.770Z,2.42
2023-12-02T10:06:49.179Z,2.63
2023-12-02T10:09:26.194Z,2.80
2023-12-02T10:11:58.233Z,2.88
2023-12-02T10:14:26.976Z,2.47
2023-12-02T10:16:54.528Z,2.38
2023-12-02T10:19:27.380Z,2.80
2023-12-02T10:21:55.229Z,2.85
2023-12-02T10:24:27.803Z,3.05
2023-12-02T10:26:59.689Z,3.05
2023-12-02T10:29:30.087Z,3.33
2023-12-02T10:32:02.641Z,2.92
2023-12-02T10:34:34.688Z,3.60
2023-12-02T10:37:03.978Z,2.55
2023-12-02T10:39:36.294Z,3.72
2023-12-02T10:42:04.296Z,3.42
2023-12-02T10:44:32.373Z,3.65
2023-12-02T10:47:00.665Z,3.30
2023-12-02T10:49:29.176Z,2.95
2023-12-02T10:54:30.061Z,3.22
2023-12-02T10:57:05.189Z,2.80
2023-12-02T10:59:34.782Z,2.90
2023-12-02T11:02:12.221Z,2.42
2023-12-02T11:04:45.182Z,3.13
2023-12-02T11:07:16.233Z,2.92
2023-12-02T11:09:49.276Z,3.63
2023-12-02T11:12:22.703Z,2.95
2023-12-02T11:14:50.493Z,2.40
2023-12-02T11:17:22.294Z,2.92
2023-12-02T11:19:57.646Z,3.13
2023-12-02T11:22:37.031Z,3.00
2023-12-02T11:25:11.204Z,2.38
2023-12-02T11:27:45.713Z,2.35
2023-12-02T11:30:17.103Z,2.88
2023-12-02T11:32:50.800Z,3.60
2023-12-02T11:35:23.249Z,3.35
2023-12-02T11:37:56.621Z,3.10
2023-12-02T11:40:26.243Z,3.30
2023-12-02T11:42:56.196Z,2.75
2023-12-02T11:47:59.698Z,2.17
2023-12-02T11:50:33.017Z,2.63
2023-12-02T11:53:15.315Z,3.30
2023-12-02T11:55:44.163Z,3.05
2023-12-02T11:58:15.265Z,3.63
2023-12-02T12:00:52.349Z,4.82
2023-12-02T12:03:31.260Z,4.13
2023-12-02T12:06:04.976Z,3.80
2023-12-02T12:08:37.008Z,3.72
2023-12-02T12:11:05.182Z,4.47
2023-12-02T12:13:34.472Z,4.75
2023-12-02T12:16:01.905Z,6.35
2023-12-02T12:18:29.334Z,5.00
2023-12-02T12:20:57.264Z,4.38
2023-12-02T12:23:25.551Z,3.33
2023-12-02T12:25:54.441Z,3.00
2023-12-02T12:28:21.813Z,3.22
2023-12-02T12:30:49.978Z,3.47
2023-12-02T12:33:18.721Z,3.28
2023-12-02T12:35:46.190Z,3.88
2023-12-02T12:38:13.835Z,3.15
2023-12-02T12:40:41.688Z,3.38
2023-12-02T12:43:12.216Z,3.35
2023-12-02T12:45:40.174Z,4.20
2023-12-02T12:48:08.083Z,4.60
2023-12-02T12:50:37.400Z,3.88
2023-12-02T12:53:09.684Z,2.42
2023-12-02T12:55:37.996Z,3.40
2023-12-02T12:58:06.928Z,3.45
2023-12-02T13:00:36.639Z,2.88
2023-12-02T13:03:17.850Z,3.00
2023-12-02T13:05:49.483Z,3.70
2023-12-02T13:08:21.800Z,3.88
2023-12-02T13:10:50.055Z,3.28
2023-12-02T13:13:18.407Z,3.35
2023-12-02T13:15:49.757Z,3.50
2023-12-02T13:18:19.673Z,3.00
2023-12-02T13:23:15.042Z,2.85
2023-12-02T13:25:42.713Z,3.22
2023-12-02T13:28:15.178Z,3.58
2023-12-02T13:30:43.484Z,3.40
2023-12-02T13:33:13.157Z,3.70
2023-12-02T13:35:43.435Z,3.58
2023-12-02T13:38:15.975Z,3.45
2023-12-02T13:40:48.606Z,2.38
2023-12-02T13:43:17.188Z,2.90
2023-12-02T13:45:47.299Z,3.53
2023-12-02T13:48:21.015Z,3.38
2023-12-02T13:50:51.324Z,3.70
2023-12-02T13:53:22.658Z,3.20
2023-12-02T13:55:59.485Z,3.63
2023-12-02T13:58:35.431Z,4.55
2023-12-02T14:01:06.292Z,4.70
2023-12-02T14:03:48.346Z,5.18
2023-12-02T14:06:19.540Z,5.07
2023-12-02T14:08:51.899Z,4.38
2023-12-02T14:11:25.104Z,3.58
2023-12-02T14:13:57.392Z,4.65
2023-12-02T14:16:34.632Z,5.95
2023-12-02T14:19:22.738Z,4.60
2023-12-02T14:22:10.960Z,5.60
2023-12-02T14:24:55.668Z,3.63
2023-12-02T14:27:43.872Z,4.55
2023-12-02T14:30:23.302Z,3.25
2023-12-02T14:33:00.217Z,4.32
2023-12-02T14:35:36.861Z,5.43
2023-12-02T14:38:13.268Z,5.68
2023-12-02T14:40:52.969Z,4.65
2023-12-02T14:43:28.934Z,5.00
2023-12-02T14:45:57.706Z,5.05
2023-12-02T14:48:26.681Z,3.92
2023-12-02T14:50:54.686Z,4.18
2023-12-02T14:53:22.903Z,5.32
2023-12-02T14:55:50.386Z,4.65
2023-12-02T14:58:21.612Z,5.20
2023-12-02T15:00:55.468Z,5.00
2023-12-02T15:03:25.647Z,4.88
2023-12-02T15:05:53.573Z,3.72
2023-12-02T15:08:21.011Z,4.03
2023-12-02T15:10:48.596Z,3.58
2023-12-02T15:13:17.380Z,3.60
2023-12-02T15:15:45.717Z,3.05
2023-12-02T15:18:17.609Z,3.40
2023-12-02T15:20:50.214Z,3.97
2023-12-02T15:23:36.790Z,4.53
2023-12-02T15:26:04.592Z,5.00
2023-12-02T15:28:44.762Z,5.97
2023-12-02T15:31:29.918Z,4.28
2023-12-02T15:34:00.432Z,4.85
2023-12-02T15:36:28.762Z,4.78
2023-12-02T15:38:56.735Z,4.18
2023-12-02T15:41:24.436Z,4.03
2023-12-02T15:43:55.021Z,4.85
2023-12-02T15:46:22.499Z,5.05
2023-12-02T15:48:49.984Z,4.88
2023-12-02T15:51:19.762Z,5.07
2023-12-02T15:56:14.361Z,4.75
2023-12-02T15:58:41.936Z,4.65
2023-12-02T16:01:11.413Z,4.97
2023-12-02T16:03:38.827Z,4.97
2023-12-02T16:06:07.879Z,4.10
2023-12-02T16:08:37.298Z,4.45
2023-12-02T16:11:05.263Z,4.40
2023-12-02T16:13:33.343Z,4.07
2023-12-02T16:16:06.159Z,4.43
2023-12-02T16:18:33.603Z,4.15
2023-12-02T16:21:01.078Z,4.72
2023-12-02T16:23:28.693Z,4.85
2023-12-02T16:25:57.905Z,3.55
2023-12-02T16:28:32.113Z,4.15
2023-12-02T16:30:59.741Z,4.07
2023-12-02T16:33:28.100Z,4.78
2023-12-02T16:35:55.807Z,4.53
2023-12-02T16:38:23.420Z,4.22
2023-12-02T16:40:51.390Z,4.80
2023-12-02T16:43:20.440Z,4.15
2023-12-02T16:45:47.979Z,4.47
2023-12-02T16:48:15.524Z,4.10
2023-12-02T16:50:44.333Z,4.32
2023-12-02T16:53:12.717Z,3.58
2023-12-02T16:55:40.068Z,3.90
2023-12-02T16:58:10.085Z,4.50
2023-12-02T17:00:40.562Z,4.57
2023-12-02T17:03:08.357Z,4.88
2023-12-02T17:05:58.458Z,4.60
2023-12-02T17:08:26.054Z,4.60
2023-12-02T17:10:57.487Z,3.70
2023-12-02T17:13:25.442Z,3.78
2023-12-02T17:15:55.047Z,4.22
2023-12-02T17:18:42.977Z,4.40
2023-12-02T17:21:17.794Z,4.50
2023-12-02T17:23:48.490Z,4.53
2023-12-02T17:26:17.331Z,5.10
2023-12-02T17:28:44.683Z,4.22
2023-12-02T17:31:13.645Z,4.50
2023-12-02T17:33:41.373Z,4.22
2023-12-02T17:36:09.368Z,4.88
2023-12-02T17:38:36.776Z,5.47
2023-12-02T17:41:04.206Z,4.43
2023-12-02T17:43:31.536Z,4.28
2023-12-02T17:45:58.925Z,4.30
2023-12-02T17:48:27.949Z,4.18
2023-12-02T17:50:55.371Z,5.05
2023-12-02T17:53:23.770Z,4.95
2023-12-02T17:55:51.219Z,5.15
2023-12-02T17:58:18.564Z,5.43
2023-12-02T18:00:46.025Z,4.70
2023-12-02T18:03:13.442Z,5.10
2023-12-02T18:05:42.467Z,5.47
2023-12-02T18:08:10.061Z,4.90
2023-12-02T18:10:37.414Z,4.75
2023-12-02T18:13:04.760Z,5.22
2023-12-02T18:15:32.167Z,5.05
2023-12-02T18:17:59.705Z,5.53
2023-12-02T18:20:27.143Z,5.32
2023-12-02T18:22:56.065Z,5.82
2023-12-02T18:25:23.525Z,6.18
2023-12-02T18:27:50.867Z,6.30
2023-12-02T18:30:18.316Z,7.30
2023-12-02T18:32:45.775Z,8.43
2023-12-02T18:35:13.176Z,6.88
2023-12-02T18:37:40.518Z,7.80
2023-12-02T18:40:10.434Z,6.70
2023-12-02T18:42:37.795Z,7.40
2023-12-02T18:45:05.481Z,5.18
2023-12-02T18:47:32.994Z,5.32
2023-12-02T18:50:00.397Z,5.20
2023-12-02T18:52:27.738Z,5.65
2023-12-02T18:54:55.125Z,4.90
2023-12-02T18:57:24.032Z,6.85
2023-12-02T18:59:51.487Z,6.05
2023-12-02T19:02:18.911Z,7.50
2023-12-02T19:04:46.354Z,7.18
2023-12-02T19:07:13.730Z,7.82
2023-12-02T19:09:41.218Z,7.65
2023-12-02T19:12:09.029Z,7.05
2023-12-02T19:14:38.460Z,6.43
2023-12-02T19:19:32.806Z,5.85
2023-12-02T19:22:00.207Z,5.40
2023-12-02T19:24:27.676Z,7.55
2023-12-02T19:26:55.128Z,5.72
2023-12-02T19:29:22.504Z,6.97
2023-12-02T19:31:51.482Z,5.90
2023-12-02T19:34:18.975Z,6.53
2023-12-02T19:36:46.416Z,5.65
2023-12-02T19:39:13.873Z,5.18
2023-12-02T19:41:43.874Z,6.45
2023-12-02T19:44:12.594Z,5.75
2023-12-02T19:46:39.970Z,5.47
2023-12-02T19:49:09.159Z,4.50
2023-12-02T19:51:36.574Z,5.03
2023-12-02T19:54:04.206Z,5.70
2023-12-02T19:56:31.571Z,5.10
2023-12-02T19:58:58.961Z,5.25
2023-12-02T20:01:26.390Z,5.22
2023-12-02T20:03:53.851Z,5.43
2023-12-02T20:06:22.838Z,5.35
2023-12-02T20:08:50.416Z,5.57
2023-12-02T20:11:17.792Z,5.13
2023-12-02T20:13:45.151Z,4.80
2023-12-02T20:16:12.523Z,4.90
2023-12-02T20:18:39.960Z,5.28
2023-12-02T20:21:07.690Z,5.13
2023-12-02T20:23:36.690Z,4.75
2023-12-02T20:26:04.060Z,5.65
2023-12-02T20:28:31.433Z,5.30
2023-12-02T20:30:58.888Z,5.80
2023-12-02T20:33:26.334Z,5.00
2023-12-02T20:35:53.722Z,5.05
2023-12-02T20:38:21.164Z,5.18
2023-12-02T20:40:50.056Z,4.70
2023-12-02T20:43:17.456Z,4.28
2023-12-02T20:45:44.907Z,4.82
2023-12-02T20:48:12.327Z,4.38
2023-12-02T20:50:39.680Z,5.20
2023-12-02T20:53:07.119Z,5.18
2023-12-02T20:55:34.477Z,4.80
2023-12-02T20:58:03.384Z,4.70
2023-12-02T21:00:30.794Z,4.95
2023-12-02T21:02:58.157Z,4.80
2023-12-02T21:05:25.516Z,4.43
2023-12-02T21:07:52.985Z,5.03
2023-12-02T21:10:20.346Z,4.35
2023-12-02T21:12:47.738Z,4.55
2023-12-02T21:15:16.882Z,4.60
2023-12-02T21:17:44.411Z,4.45
2023-12-02T21:20:12.049Z,4.18
2023-12-02T21:22:39.437Z,4.13
2023-12-02T21:25:07.258Z,4.35
2023-12-02T21:27:34.633Z,3.83
2023-12-02T21:30:02.628Z,3.90
2023-12-02T21:32:32.101Z,4.45
2023-12-02T21:37:26.453Z,3.75
2023-12-02T21:39:57.540Z,3.58
2023-12-02T21:42:24.983Z,3.92
2023-12-02T21:44:53.350Z,3.55
2023-12-02T21:47:20.731Z,4.35
2023-12-02T21:49:49.718Z,4.30
2023-12-02T21:52:17.529Z,4.80
2023-12-02T21:54:44.940Z,3.83
2023-12-02T21:57:12.673Z,4.35
2023-12-02T21:59:40.132Z,4.38
2023-12-02T22:02:16.222Z,4.18
2023-12-02T22:04:43.877Z,4.35
2023-12-02T22:07:13.639Z,4.32
2023-12-02T22:09:41.281Z,4.40
2023-12-02T22:12:15.773Z,4.65
2023-12-02T22:14:43.170Z,4.70
2023-12-02T22:17:10.554Z,4.32
2023-12-02T22:19:38.044Z,4.07
2023-12-02T22:22:06.672Z,5.05
2023-12-02T22:24:38.428Z,4.57
2023-12-02T22:27:06.930Z,4.45
2023-12-02T22:29:34.933Z,4.70
2023-12-02T22:32:04.789Z,5.15
2023-12-02T22:34:32.258Z,4.93
2023-12-02T22:37:00.253Z,5.13
2023-12-02T22:39:28.739Z,5.22
2023-12-02T22:41:59.293Z,4.75
2023-12-02T22:44:26.632Z,4.97
2023-12-02T22:46:57.838Z,4.97
2023-12-02T22:49:25.998Z,5.15
2023-12-02T22:51:53.528Z,5.68
2023-12-02T22:54:26.050Z,5.32
2023-12-02T22:56:55.354Z,5.28
2023-12-02T22:59:24.875Z,5.63
2023-12-02T23:04:25.190Z,5.60
2023-12-02T23:06:53.243Z,5.82
2023-12-02T23:09:25.677Z,5.65
2023-12-02T23:11:53.302Z,5.78
2023-12-02T23:14:32.355Z,5.07
2023-12-02T23:16:59.723Z,5.78
2023-12-02T23:19:31.850Z,5.90
2023-12-02T23:21:59.218Z,6.10
2023-12-02T23:24:26.793Z,5.70
2023-12-02T23:26:54.165Z,6.15
2023-12-02T23:29:21.599Z,6.00
2023-12-02T23:31:50.632Z,5.75
2023-12-02T23:34:18.170Z,6.38
2023-12-02T23:36:45.720Z,5.95
2023-12-02T23:39:23.523Z,5.78
2023-12-02T23:41:51.046Z,6.18
2023-12-02T23:44:32.124Z,6.13
2023-12-02T23:47:01.206Z,6.28
2023-12-02T23:49:28.686Z,6.35
2023-12-02T23:51:56.087Z,5.90
2023-12-02T23:54:23.490Z,6.38
2023-12-02T23:56:50.904Z,6.53
2023-12-02T23:59:18.435Z,6.28
